createdAt,value
2019-04-04T00:00:28.035Z,17.10
2019-04-04T00:01:27.975Z,17.30
2019-04-04T00:02:27.881Z,17.20
2019-04-04T00:03:27.992Z,16.60
2019-04-04T00:04:27.703Z,17.60
2019-04-04T00:05:27.620Z,17.10
2019-04-04T00:06:27.762Z,17.30
2019-04-04T00:07:29.070Z,18.00
2019-04-04T00:08:30.720Z,17.10
2019-04-04T00:09:27.414Z,17.60
2019-04-04T00:10:27.191Z,17.40
2019-04-04T00:11:27.104Z,16.90
2019-04-04T00:12:27.055Z,17.40
2019-04-04T00:13:26.935Z,16.60
2019-04-04T00:14:26.849Z,17.60
2019-04-04T00:15:26.764Z,17.30
2019-04-04T00:16:26.847Z,17.60
2019-04-04T00:17:26.616Z,17.60
2019-04-04T00:18:27.359Z,17.50
2019-04-04T00:19:27.861Z,17.20
2019-04-04T00:20:26.343Z,17.90
2019-04-04T00:21:26.260Z,18.20
2019-04-04T00:22:26.301Z,17.00
2019-04-04T00:23:26.091Z,18.10
2019-04-04T00:24:26.002Z,17.70
2019-04-04T00:25:26.087Z,18.40
2019-04-04T00:26:25.830Z,18.60
2019-04-04T00:27:25.927Z,17.80
2019-04-04T00:28:25.659Z,18.70
2019-04-04T00:29:25.595Z,18.40
2019-04-04T00:30:25.709Z,19.20
2019-04-04T00:31:25.408Z,19.10
2019-04-04T00:32:25.339Z,18.30
2019-04-04T00:33:25.822Z,18.00
2019-04-04T00:34:27.618Z,18.60
2019-04-04T00:35:25.070Z,18.40
2019-04-04T00:36:25.136Z,18.10
2019-04-04T00:37:24.912Z,18.00
2019-04-04T00:38:24.815Z,18.60
2019-04-04T00:39:24.745Z,18.00
2019-04-04T00:40:24.644Z,17.50
2019-04-04T00:41:24.557Z,18.50
2019-04-04T00:42:24.614Z,18.50
2019-04-04T00:43:24.388Z,18.20
2019-04-04T00:44:24.313Z,18.20
2019-04-04T00:45:24.375Z,18.10
2019-04-04T00:46:24.131Z,18.40
2019-04-04T00:47:24.065Z,18.00
2019-04-04T00:48:23.984Z,18.40
2019-04-04T00:49:23.878Z,17.50
2019-04-04T00:50:23.793Z,18.60
2019-04-04T00:51:23.803Z,18.00
2019-04-04T00:52:23.650Z,17.50
2019-04-04T00:53:23.539Z,18.10
2019-04-04T00:54:23.636Z,17.70
2019-04-04T00:55:23.366Z,18.20
2019-04-04T00:56:23.425Z,16.80
2019-04-04T00:57:23.213Z,16.80
2019-04-04T00:58:23.235Z,17.00
2019-04-04T00:59:23.674Z,17.00
2019-04-04T01:00:24.054Z,18.00
2019-04-04T01:01:26.049Z,17.30
2019-04-04T01:02:22.883Z,17.70
2019-04-04T01:03:22.688Z,17.60
2019-04-04T01:04:22.608Z,17.70
2019-04-04T01:05:22.666Z,18.20
2019-04-04T01:06:22.431Z,17.70
2019-04-04T01:07:22.365Z,17.90
2019-04-04T01:08:22.483Z,17.50
2019-04-04T01:09:22.180Z,17.10
2019-04-04T01:10:22.106Z,17.00
2019-04-04T01:11:22.090Z,17.50
2019-04-04T01:12:22.339Z,16.90
2019-04-04T01:13:23.653Z,16.80
2019-04-04T01:14:21.755Z,17.00
2019-04-04T01:15:21.707Z,18.20
2019-04-04T01:16:21.589Z,16.20
2019-04-04T01:17:21.562Z,16.90
2019-04-04T01:18:21.417Z,17.50
2019-04-04T01:19:21.529Z,16.50
2019-04-04T01:20:21.245Z,16.50
2019-04-04T01:21:22.289Z,16.80
2019-04-04T01:22:21.131Z,16.90
2019-04-04T01:23:20.988Z,16.70
2019-04-04T01:24:21.973Z,16.80
2019-04-04T01:25:20.818Z,16.70
2019-04-04T01:26:20.756Z,15.80
2019-04-04T01:27:20.653Z,16.70
2019-04-04T01:28:20.597Z,16.50
2019-04-04T01:29:20.485Z,16.40
2019-04-04T01:30:20.582Z,16.50
2019-04-04T01:31:20.308Z,16.50
2019-04-04T01:32:20.384Z,16.10
2019-04-04T01:33:20.473Z,16.80
2019-04-04T01:34:20.914Z,16.30
2019-04-04T01:35:22.538Z,16.90
2019-04-04T01:36:19.884Z,16.60
2019-04-04T01:37:19.801Z,16.10
2019-04-04T01:38:19.844Z,16.00
2019-04-04T01:39:19.629Z,16.70
2019-04-04T01:40:19.542Z,17.00
2019-04-04T01:41:19.630Z,16.90
2019-04-04T01:42:19.373Z,17.30
2019-04-04T01:43:19.466Z,16.60
2019-04-04T01:44:19.199Z,15.80
2019-04-04T01:45:19.243Z,16.50
2019-04-04T01:46:19.034Z,16.30
2019-04-04T01:47:19.051Z,16.80
2019-04-04T01:48:19.357Z,16.50
2019-04-04T01:49:20.869Z,16.80
2019-04-04T01:50:18.687Z,16.70
2019-04-04T01:51:18.670Z,15.70
2019-04-04T01:52:18.520Z,16.50
2019-04-04T01:53:18.516Z,16.10
2019-04-04T01:54:18.354Z,17.30
2019-04-04T01:55:18.266Z,16.40
2019-04-04T01:56:18.291Z,17.40
2019-04-04T01:57:18.098Z,18.10
2019-04-04T01:58:18.017Z,17.70
2019-04-04T01:59:18.103Z,16.90
2019-04-04T02:00:17.863Z,16.50
2019-04-04T02:01:17.755Z,16.50
2019-04-04T02:02:18.488Z,16.00
2019-04-04T02:03:17.592Z,15.60
2019-04-04T02:04:17.526Z,17.30
2019-04-04T02:05:17.409Z,17.10
2019-04-04T02:06:17.538Z,17.70
2019-04-04T02:07:17.240Z,17.20
2019-04-04T02:08:17.376Z,16.90
2019-04-04T02:09:17.066Z,18.20
2019-04-04T02:10:17.158Z,16.80
2019-04-04T02:11:16.902Z,17.30
2019-04-04T02:12:16.812Z,16.50
2019-04-04T02:13:16.741Z,18.90
2019-04-04T02:14:19.395Z,17.50
2019-04-04T02:15:16.556Z,16.20
2019-04-04T02:16:17.025Z,16.50
2019-04-04T02:17:16.388Z,16.30
2019-04-04T02:18:16.426Z,16.20
2019-04-04T02:19:16.211Z,18.40
2019-04-04T02:20:16.127Z,16.10
2019-04-04T02:21:16.046Z,17.10
2019-04-04T02:22:16.006Z,16.90
2019-04-04T02:23:15.885Z,17.70
2019-04-04T02:24:15.846Z,17.60
2019-04-04T02:25:15.702Z,17.50
2019-04-04T02:26:15.829Z,17.80
2019-04-04T02:27:15.530Z,18.60
2019-04-04T02:28:15.636Z,18.20
2019-04-04T02:29:15.378Z,18.10
2019-04-04T02:30:16.484Z,18.50
2019-04-04T02:31:15.248Z,18.70
2019-04-04T02:32:15.102Z,17.90
2019-04-04T02:33:15.019Z,18.80
2019-04-04T02:34:15.093Z,18.20
2019-04-04T02:35:14.847Z,19.30
2019-04-04T02:36:16.700Z,19.30
2019-04-04T02:37:14.878Z,19.80
2019-04-04T02:38:14.590Z,18.60
2019-04-04T02:39:14.519Z,18.40
2019-04-04T02:40:14.493Z,18.20
2019-04-04T02:41:15.555Z,19.20
2019-04-04T02:42:14.256Z,19.00
2019-04-04T02:43:14.304Z,18.00
2019-04-04T02:44:14.091Z,18.30
2019-04-04T02:45:13.991Z,19.20
2019-04-04T02:46:14.117Z,18.90
2019-04-04T02:47:16.816Z,19.10
2019-04-04T02:48:13.924Z,19.00
2019-04-04T02:49:13.670Z,18.80
2019-04-04T02:50:13.738Z,18.60
2019-04-04T02:51:13.479Z,19.80
2019-04-04T02:52:14.190Z,20.60
2019-04-04T02:53:13.344Z,20.30
2019-04-04T02:54:13.258Z,21.40
2019-04-04T02:55:13.139Z,21.60
2019-04-04T02:56:13.160Z,22.10
2019-04-04T02:57:12.967Z,22.90
2019-04-04T02:58:15.125Z,24.80
2019-04-04T02:59:12.807Z,24.50
2019-04-04T03:00:12.778Z,24.30
2019-04-04T03:01:12.625Z,24.20
2019-04-04T03:02:12.585Z,23.50
2019-04-04T03:03:12.452Z,22.00
2019-04-04T03:04:13.971Z,22.40
2019-04-04T03:05:12.303Z,22.40
2019-04-04T03:06:12.189Z,21.20
2019-04-04T03:07:12.209Z,22.80
2019-04-04T03:08:12.021Z,21.40
2019-04-04T03:09:11.952Z,21.30
2019-04-04T03:10:15.252Z,20.80
2019-04-04T03:11:11.767Z,20.70
2019-04-04T03:12:11.678Z,20.20
2019-04-04T03:13:11.634Z,19.60
2019-04-04T03:14:11.520Z,20.60
2019-04-04T03:15:11.443Z,21.80
2019-04-04T03:16:11.341Z,21.60
2019-04-04T03:17:11.253Z,20.50
2019-04-04T03:18:11.268Z,19.90
2019-04-04T03:19:11.321Z,20.00
2019-04-04T03:20:11.003Z,20.40
2019-04-04T03:21:11.074Z,20.00
2019-04-04T03:22:10.818Z,19.20
2019-04-04T03:23:10.739Z,19.60
2019-04-04T03:24:10.685Z,18.90
2019-04-04T03:25:14.431Z,19.80
2019-04-04T03:26:10.477Z,18.30
2019-04-04T03:27:10.500Z,18.70
2019-04-04T03:28:10.305Z,18.60
2019-04-04T03:29:10.725Z,17.80
2019-04-04T03:30:14.547Z,18.90
2019-04-04T03:31:10.049Z,18.20
2019-04-04T03:32:14.435Z,18.30
2019-04-04T03:33:09.924Z,19.70
2019-04-04T03:34:12.464Z,19.80
2019-04-04T03:35:09.763Z,19.60
2019-04-04T03:36:09.622Z,20.50
2019-04-04T03:37:12.302Z,18.90
2019-04-04T03:38:10.763Z,17.80
2019-04-04T03:39:09.553Z,19.10
2019-04-04T03:40:09.298Z,17.90
2019-04-04T03:41:09.363Z,18.70
2019-04-04T03:42:09.127Z,18.30
2019-04-04T03:43:09.171Z,19.20
2019-04-04T03:44:08.945Z,18.00
2019-04-04T03:45:09.212Z,18.50
2019-04-04T03:46:08.768Z,18.90
2019-04-04T03:47:10.581Z,17.40
2019-04-04T03:48:08.794Z,18.50
2019-04-04T03:49:08.615Z,18.50
2019-04-04T03:50:08.443Z,17.40
2019-04-04T03:51:08.407Z,17.90
2019-04-04T03:52:11.170Z,18.30
2019-04-04T03:53:08.212Z,17.90
2019-04-04T03:54:08.079Z,18.60
2019-04-04T03:55:08.052Z,17.90
2019-04-04T03:56:07.917Z,18.40
2019-04-04T03:57:10.908Z,17.50
2019-04-04T03:58:07.837Z,17.90
2019-04-04T03:59:07.672Z,18.50
2019-04-04T04:00:07.734Z,18.70
2019-04-04T04:01:12.100Z,17.50
2019-04-04T04:02:07.437Z,18.40
2019-04-04T04:03:07.458Z,18.60
2019-04-04T04:04:07.224Z,16.90
2019-04-04T04:05:07.299Z,18.00
2019-04-04T04:06:09.025Z,17.90
2019-04-04T04:07:07.080Z,18.80
2019-04-04T04:08:06.887Z,18.40
2019-04-04T04:09:06.886Z,17.90
2019-04-04T04:10:06.737Z,18.50
2019-04-04T04:11:06.701Z,18.10
2019-04-04T04:12:10.040Z,19.20
2019-04-04T04:13:06.457Z,19.50
2019-04-04T04:14:06.508Z,18.60
2019-04-04T04:15:06.328Z,19.90
2019-04-04T04:16:06.203Z,19.50
2019-04-04T04:17:06.328Z,18.60
2019-04-04T04:18:06.041Z,18.80
2019-04-04T04:19:06.148Z,21.20
2019-04-04T04:20:05.885Z,20.30
2019-04-04T04:21:09.854Z,20.60
2019-04-04T04:22:05.696Z,19.50
2019-04-04T04:23:05.622Z,19.20
2019-04-04T04:24:05.526Z,19.50
2019-04-04T04:25:05.590Z,19.30
2019-04-04T04:26:08.234Z,18.50
2019-04-04T04:27:05.271Z,17.90
2019-04-04T04:28:05.375Z,19.00
2019-04-04T04:29:05.101Z,18.80
2019-04-04T04:30:07.193Z,18.60
2019-04-04T04:31:04.924Z,19.40
2019-04-04T04:32:04.988Z,19.90
2019-04-04T04:33:04.751Z,19.10
2019-04-04T04:34:04.798Z,19.80
2019-04-04T04:35:07.600Z,19.00
2019-04-04T04:36:04.611Z,19.70
2019-04-04T04:37:04.412Z,19.30
2019-04-04T04:38:04.414Z,19.00
2019-04-04T04:39:04.240Z,19.00
2019-04-04T04:40:04.256Z,18.90
2019-04-04T04:41:04.077Z,20.00
2019-04-04T04:42:03.988Z,19.70
2019-04-04T04:43:04.043Z,19.30
2019-04-04T04:44:05.579Z,19.20
2019-04-04T04:45:03.742Z,21.10
2019-04-04T04:46:03.866Z,20.00
2019-04-04T04:47:03.564Z,18.90
2019-04-04T04:48:03.502Z,19.00
2019-04-04T04:49:04.323Z,17.80
2019-04-04T04:50:03.504Z,18.20
2019-04-04T04:51:03.221Z,19.20
2019-04-04T04:52:03.141Z,18.50
2019-04-04T04:53:03.048Z,18.80
2019-04-04T04:54:03.085Z,19.00
2019-04-04T04:55:02.887Z,19.90
2019-04-04T04:56:02.789Z,19.10
2019-04-04T04:57:04.034Z,18.20
2019-04-04T04:58:02.623Z,19.00
2019-04-04T04:59:02.532Z,18.70
2019-04-04T05:00:02.554Z,20.80
2019-04-04T05:01:02.359Z,19.10
2019-04-04T05:02:02.275Z,19.80
2019-04-04T05:03:02.328Z,19.80
2019-04-04T05:04:02.637Z,19.90
2019-04-04T05:05:02.173Z,19.40
2019-04-04T05:06:02.618Z,18.80
2019-04-04T05:07:01.951Z,19.50
2019-04-04T05:08:01.763Z,18.50
2019-04-04T05:09:01.680Z,18.30
2019-04-04T05:10:01.790Z,18.50
2019-04-04T05:11:01.511Z,19.80
2019-04-04T05:12:01.482Z,19.70
2019-04-04T05:13:01.368Z,18.70
2019-04-04T05:14:01.273Z,18.40
2019-04-04T05:15:02.025Z,19.70
2019-04-04T05:16:03.964Z,18.90
2019-04-04T05:17:01.002Z,19.90
2019-04-04T05:18:01.056Z,19.80
2019-04-04T05:19:05.503Z,21.30
2019-04-04T05:20:02.833Z,18.70
2019-04-04T05:21:01.985Z,20.90
2019-04-04T05:22:03.480Z,23.00
2019-04-04T05:23:00.481Z,20.70
2019-04-04T05:24:00.419Z,21.30
2019-04-04T05:25:07.828Z,21.00
2019-04-04T05:26:03.087Z,20.40
2019-04-04T05:27:00.180Z,20.50
2019-04-04T05:28:00.270Z,20.40
2019-04-04T05:28:59.971Z,20.70
2019-04-04T05:30:01.073Z,20.10
2019-04-04T05:30:59.812Z,20.50
2019-04-04T05:31:59.857Z,24.20
2019-04-04T05:32:59.629Z,23.60
2019-04-04T05:33:59.790Z,22.00
2019-04-04T05:35:01.261Z,24.50
2019-04-04T05:35:59.414Z,22.80
2019-04-04T05:36:59.290Z,27.00
2019-04-04T05:37:59.287Z,25.90
2019-04-04T05:38:59.121Z,22.50
2019-04-04T05:39:59.082Z,26.10
2019-04-04T05:40:58.970Z,26.20
2019-04-04T05:42:00.343Z,23.30
2019-04-04T05:42:58.787Z,23.40
2019-04-04T05:43:58.696Z,23.50
2019-04-04T05:44:58.606Z,22.90
2019-04-04T05:45:58.822Z,22.80
2019-04-04T05:46:58.569Z,23.60
2019-04-04T05:47:59.850Z,22.80
2019-04-04T05:49:00.952Z,23.30
2019-04-04T05:49:58.200Z,23.20
2019-04-04T05:50:58.104Z,22.40
2019-04-04T05:51:58.037Z,22.70
2019-04-04T05:52:57.932Z,21.60
2019-04-04T05:53:57.839Z,20.90
2019-04-04T05:54:57.759Z,21.40
2019-04-04T05:55:57.687Z,21.60
2019-04-04T05:56:57.587Z,20.70
2019-04-04T05:57:57.577Z,19.20
2019-04-04T05:58:57.418Z,19.00
2019-04-04T05:59:57.329Z,19.90
2019-04-04T06:00:57.816Z,18.60
2019-04-04T06:01:57.161Z,19.50
2019-04-04T06:02:57.073Z,19.30
2019-04-04T06:03:57.201Z,18.00
2019-04-04T06:04:56.903Z,18.90
2019-04-04T06:05:57.052Z,19.40
2019-04-04T06:06:56.733Z,19.50
2019-04-04T06:07:56.827Z,19.20
2019-04-04T06:08:56.564Z,18.90
2019-04-04T06:09:56.625Z,18.60
2019-04-04T06:10:56.405Z,18.50
2019-04-04T06:11:56.439Z,18.90
2019-04-04T06:12:57.005Z,17.70
2019-04-04T06:13:56.998Z,19.30
2019-04-04T06:14:56.057Z,17.70
2019-04-04T06:15:56.085Z,18.10
2019-04-04T06:16:55.885Z,18.50
2019-04-04T06:17:55.861Z,18.10
2019-04-04T06:18:55.716Z,18.50
2019-04-04T06:19:55.668Z,18.90
2019-04-04T06:20:55.559Z,18.90
2019-04-04T06:21:55.463Z,19.70
2019-04-04T06:22:55.379Z,17.90
2019-04-04T06:23:55.964Z,19.80
2019-04-04T06:24:55.206Z,20.90
2019-04-04T06:25:55.330Z,22.20
2019-04-04T06:26:55.034Z,21.70
2019-04-04T06:27:55.106Z,20.50
2019-04-04T06:28:54.865Z,19.80
2019-04-04T06:29:54.784Z,18.50
2019-04-04T06:30:54.749Z,19.20
2019-04-04T06:31:54.615Z,19.20
2019-04-04T06:32:54.530Z,19.60
2019-04-04T06:33:54.545Z,19.20
2019-04-04T06:34:56.596Z,19.60
2019-04-04T06:35:54.296Z,18.40
2019-04-04T06:36:54.346Z,18.60
2019-04-04T06:37:54.104Z,17.70
2019-04-04T06:38:54.618Z,17.10
2019-04-04T06:39:54.396Z,16.70
2019-04-04T06:40:53.918Z,15.40
2019-04-04T06:41:53.766Z,16.10
2019-04-04T06:42:53.783Z,16.10
2019-04-04T06:43:53.596Z,16.30
2019-04-04T06:44:54.339Z,16.30
2019-04-04T06:45:53.519Z,16.30
2019-04-04T06:46:54.069Z,16.20
2019-04-04T06:47:55.182Z,15.90
2019-04-04T06:48:53.176Z,15.10
2019-04-04T06:49:53.092Z,15.80
2019-04-04T06:50:53.048Z,15.30
2019-04-04T06:51:52.925Z,15.90
2019-04-04T06:52:52.838Z,15.00
2019-04-04T06:53:53.712Z,15.90
2019-04-04T06:54:52.670Z,15.50
2019-04-04T06:55:52.666Z,16.50
2019-04-04T06:56:52.503Z,15.70
2019-04-04T06:57:52.439Z,16.20
2019-04-04T06:58:52.337Z,16.00
2019-04-04T06:59:52.249Z,16.40
2019-04-04T07:00:52.286Z,16.20
2019-04-04T07:01:52.632Z,17.00
2019-04-04T07:02:55.180Z,15.40
2019-04-04T07:03:52.900Z,14.40
2019-04-04T07:04:53.527Z,14.60
2019-04-04T07:05:53.401Z,15.50
2019-04-04T07:06:52.876Z,15.80
2019-04-04T07:07:51.577Z,14.60
2019-04-04T07:08:51.496Z,14.50
2019-04-04T07:09:51.496Z,15.40
2019-04-04T07:10:57.867Z,13.80
2019-04-04T07:11:54.362Z,13.80
2019-04-04T07:12:51.157Z,14.00
2019-04-04T07:13:51.122Z,15.70
2019-04-04T07:14:50.992Z,14.60
2019-04-04T07:16:05.411Z,14.30
2019-04-04T07:16:54.964Z,14.40
2019-04-04T07:17:51.772Z,13.30
2019-04-04T07:18:50.654Z,14.10
2019-04-04T07:19:50.594Z,13.10
2019-04-04T07:20:50.749Z,13.20
2019-04-04T07:21:51.333Z,13.60
2019-04-04T07:22:50.318Z,13.90
2019-04-04T07:23:50.358Z,13.10
2019-04-04T07:24:50.154Z,12.90
2019-04-04T07:25:53.232Z,13.50
2019-04-04T07:26:50.209Z,12.60
2019-04-04T07:27:49.907Z,13.00
2019-04-04T07:28:53.741Z,13.10
2019-04-04T07:29:49.785Z,12.40
2019-04-04T07:30:49.645Z,14.70
2019-04-04T07:31:49.622Z,14.90
2019-04-04T07:32:49.570Z,13.90
2019-04-04T07:33:49.606Z,12.80
2019-04-04T07:34:49.316Z,12.60
2019-04-04T07:35:49.619Z,12.60
2019-04-04T07:36:51.181Z,12.10
2019-04-04T07:37:52.988Z,12.50
2019-04-04T07:38:48.980Z,12.50
2019-04-04T07:39:50.512Z,12.40
2019-04-04T07:40:48.818Z,12.00
2019-04-04T07:41:48.972Z,11.20
2019-04-04T07:42:48.649Z,11.60
2019-04-04T07:43:49.303Z,11.40
2019-04-04T07:44:48.482Z,11.70
2019-04-04T07:45:49.041Z,11.70
2019-04-04T07:46:48.495Z,11.80
2019-04-04T07:47:48.233Z,11.40
2019-04-04T07:48:51.310Z,11.30
2019-04-04T07:49:48.067Z,12.10
2019-04-04T07:50:47.993Z,11.50
2019-04-04T07:51:48.129Z,11.20
2019-04-04T07:52:47.820Z,11.60
2019-04-04T07:53:47.746Z,11.90
2019-04-04T07:54:47.713Z,12.10
2019-04-04T07:55:48.396Z,10.90
2019-04-04T07:56:48.885Z,11.80
2019-04-04T07:57:50.909Z,11.30
2019-04-04T07:58:47.517Z,11.90
2019-04-04T07:59:48.013Z,12.20
2019-04-04T08:00:47.330Z,11.80
2019-04-04T08:01:51.365Z,11.30
2019-04-04T08:02:47.133Z,11.50
2019-04-04T08:03:47.862Z,12.00
2019-04-04T08:04:47.740Z,11.30
2019-04-04T08:05:46.776Z,11.00
2019-04-04T08:06:46.997Z,12.30
2019-04-04T08:07:46.611Z,12.10
2019-04-04T08:08:46.538Z,11.40
2019-04-04T08:09:46.521Z,12.00
2019-04-04T08:10:46.865Z,11.30
2019-04-04T08:11:46.269Z,11.50
2019-04-04T08:12:46.171Z,11.70
2019-04-04T08:13:46.263Z,10.90
2019-04-04T08:14:46.010Z,10.90
2019-04-04T08:15:45.926Z,11.00
2019-04-04T08:16:45.863Z,11.50
2019-04-04T08:17:46.675Z,11.00
2019-04-04T08:18:45.674Z,10.60
2019-04-04T08:19:45.604Z,11.10
2019-04-04T08:20:45.510Z,11.50
2019-04-04T08:21:50.466Z,11.00
2019-04-04T08:22:45.344Z,11.30
2019-04-04T08:23:46.983Z,11.20
2019-04-04T08:24:45.179Z,12.10
2019-04-04T08:25:45.988Z,11.20
2019-04-04T08:26:45.026Z,10.90
2019-04-04T08:27:44.941Z,10.60
2019-04-04T08:28:44.847Z,10.80
2019-04-04T08:29:44.769Z,11.30
2019-04-04T08:30:47.368Z,11.10
2019-04-04T08:31:44.611Z,11.30
2019-04-04T08:32:44.517Z,11.90
2019-04-04T08:33:44.436Z,11.10
2019-04-04T08:34:44.353Z,11.40
2019-04-04T08:35:44.269Z,11.30
2019-04-04T08:36:44.250Z,11.70
2019-04-04T08:37:44.106Z,11.10
2019-04-04T08:38:44.026Z,11.60
2019-04-04T08:39:44.915Z,10.90
2019-04-04T08:40:46.082Z,11.40
2019-04-04T08:41:43.878Z,11.10
2019-04-04T08:42:45.464Z,10.90
2019-04-04T08:43:43.818Z,11.60
2019-04-04T08:44:44.447Z,11.80
2019-04-04T08:45:43.446Z,11.40
2019-04-04T08:46:43.396Z,11.60
2019-04-04T08:47:43.278Z,11.30
2019-04-04T08:48:43.195Z,10.90
2019-04-04T08:49:44.940Z,11.20
2019-04-04T08:50:43.029Z,11.50
2019-04-04T08:51:43.023Z,11.50
2019-04-04T08:52:42.863Z,11.90
2019-04-04T08:53:42.821Z,10.50
2019-04-04T08:54:42.704Z,11.30
2019-04-04T08:55:42.725Z,10.30
2019-04-04T08:56:43.381Z,10.70
2019-04-04T08:57:43.486Z,10.30
2019-04-04T08:58:44.397Z,10.40
2019-04-04T08:59:42.337Z,11.30
2019-04-04T09:00:42.207Z,10.60
2019-04-04T09:01:42.121Z,11.10
2019-04-04T09:02:42.243Z,10.80
2019-04-04T09:03:41.956Z,10.80
2019-04-04T09:04:41.875Z,10.80
2019-04-04T09:05:41.797Z,10.60
2019-04-04T09:06:41.709Z,11.20
2019-04-04T09:07:41.641Z,10.70
2019-04-04T09:08:41.635Z,10.80
2019-04-04T09:09:41.575Z,10.70
2019-04-04T09:10:41.392Z,11.30
2019-04-04T09:11:41.448Z,10.80
2019-04-04T09:12:41.221Z,11.00
2019-04-04T09:13:41.258Z,10.70
2019-04-04T09:14:41.396Z,10.60
2019-04-04T09:15:41.294Z,11.00
2019-04-04T09:16:40.887Z,10.80
2019-04-04T09:17:40.906Z,11.50
2019-04-04T09:18:40.713Z,11.80
2019-04-04T09:19:40.683Z,11.30
2019-04-04T09:20:40.553Z,10.70
2019-04-04T09:21:40.490Z,11.50
2019-04-04T09:22:41.120Z,11.30
2019-04-04T09:23:40.503Z,11.70
2019-04-04T09:24:40.218Z,11.20
2019-04-04T09:25:40.981Z,11.40
2019-04-04T09:26:40.053Z,12.70
2019-04-04T09:27:39.985Z,12.10
2019-04-04T09:28:39.926Z,12.40
2019-04-04T09:29:39.799Z,12.30
2019-04-04T09:30:39.718Z,12.40
2019-04-04T09:31:39.754Z,12.70
2019-04-04T09:32:39.563Z,11.50
2019-04-04T09:33:39.476Z,12.50
2019-04-04T09:34:39.391Z,11.90
2019-04-04T09:35:39.305Z,12.20
2019-04-04T09:36:39.362Z,14.10
2019-04-04T09:37:39.150Z,13.60
2019-04-04T09:38:39.054Z,14.50
2019-04-04T09:39:39.181Z,13.70
2019-04-04T09:40:38.893Z,13.80
2019-04-04T09:41:38.804Z,13.70
2019-04-04T09:42:38.914Z,14.00
2019-04-04T09:43:38.642Z,13.90
2019-04-04T09:44:38.595Z,13.40
2019-04-04T09:45:38.473Z,13.50
2019-04-04T09:46:38.611Z,12.60
2019-04-04T09:47:38.322Z,13.40
2019-04-04T09:48:38.418Z,13.80
2019-04-04T09:49:38.143Z,15.90
2019-04-04T09:50:38.227Z,15.20
2019-04-04T09:51:37.976Z,15.00
2019-04-04T09:52:37.907Z,16.10
2019-04-04T09:53:52.441Z,15.60
2019-04-04T09:54:37.726Z,14.40
2019-04-04T09:55:37.645Z,14.00
2019-04-04T09:56:37.652Z,15.50
2019-04-04T09:57:37.479Z,15.40
2019-04-04T09:58:37.490Z,15.40
2019-04-04T09:59:37.316Z,14.80
2019-04-04T10:00:37.267Z,15.20
2019-04-04T10:01:37.148Z,14.40
2019-04-04T10:02:37.075Z,14.50
2019-04-04T10:03:36.994Z,15.00
2019-04-04T10:04:36.944Z,14.60
2019-04-04T10:05:36.822Z,15.80
2019-04-04T10:06:36.738Z,15.50
2019-04-04T10:07:36.650Z,15.20
2019-04-04T10:08:38.832Z,15.40
2019-04-04T10:09:36.496Z,15.40
2019-04-04T10:10:36.417Z,15.00
2019-04-04T10:11:36.323Z,16.00
2019-04-04T10:12:36.234Z,16.20
2019-04-04T10:13:36.171Z,15.40
2019-04-04T10:14:36.075Z,14.90
2019-04-04T10:15:35.986Z,15.00
2019-04-04T10:16:35.909Z,15.90
2019-04-04T10:17:35.820Z,15.30
2019-04-04T10:18:35.758Z,15.50
2019-04-04T10:19:35.654Z,15.50
2019-04-04T10:20:35.578Z,15.70
2019-04-04T10:21:35.489Z,15.00
2019-04-04T10:22:35.414Z,15.70
2019-04-04T10:23:35.342Z,15.60
2019-04-04T10:24:35.245Z,15.60
2019-04-04T10:25:35.157Z,15.50
2019-04-04T10:26:35.087Z,15.10
2019-04-04T10:27:34.996Z,15.40
2019-04-04T10:28:34.923Z,15.00
2019-04-04T10:29:34.831Z,16.40
2019-04-04T10:30:34.748Z,16.50
2019-04-04T10:31:34.663Z,15.60
2019-04-04T10:32:34.581Z,15.30
2019-04-04T10:33:34.511Z,14.10
2019-04-04T10:34:34.422Z,16.10
2019-04-04T10:35:34.333Z,14.70
2019-04-04T10:36:34.258Z,14.80
2019-04-04T10:37:34.167Z,14.70
2019-04-04T10:38:34.103Z,15.10
2019-04-04T10:39:34.004Z,15.00
2019-04-04T10:40:33.927Z,14.50
2019-04-04T10:41:33.875Z,15.20
2019-04-04T10:42:33.757Z,15.60
2019-04-04T10:43:33.695Z,14.40
2019-04-04T10:44:36.630Z,15.60
2019-04-04T10:45:33.518Z,14.40
2019-04-04T10:46:33.435Z,14.70
2019-04-04T10:47:33.344Z,16.20
2019-04-04T10:48:33.291Z,15.60
2019-04-04T10:49:33.183Z,15.50
2019-04-04T10:50:33.108Z,15.20
2019-04-04T10:51:33.020Z,15.40
2019-04-04T10:52:32.948Z,15.40
2019-04-04T10:53:32.867Z,15.60
2019-04-04T10:54:32.776Z,15.80
2019-04-04T10:55:32.716Z,16.00
2019-04-04T10:56:32.620Z,15.40
2019-04-04T10:57:32.529Z,14.90
2019-04-04T10:58:32.465Z,15.30
2019-04-04T10:59:32.363Z,15.80
2019-04-04T11:00:32.290Z,15.00
2019-04-04T11:01:32.256Z,16.20
2019-04-04T11:02:32.124Z,16.40
2019-04-04T11:03:32.050Z,16.20
2019-04-04T11:04:31.961Z,16.60
2019-04-04T11:05:31.874Z,16.50
2019-04-04T11:06:31.797Z,16.20
2019-04-04T11:07:31.708Z,15.00
2019-04-04T11:08:31.641Z,15.10
2019-04-04T11:09:41.436Z,14.40
2019-04-04T11:10:31.461Z,14.10
2019-04-04T11:11:31.385Z,14.40
2019-04-04T11:12:34.149Z,14.70
2019-04-04T11:13:33.860Z,14.70
2019-04-04T11:14:31.132Z,14.40
2019-04-04T11:15:31.059Z,14.60
2019-04-04T11:16:30.968Z,13.60
2019-04-04T11:17:30.889Z,14.60
2019-04-04T11:18:30.826Z,14.40
2019-04-04T11:19:31.606Z,14.10
2019-04-04T11:20:30.637Z,14.40
2019-04-04T11:21:30.561Z,14.80
2019-04-04T11:22:30.476Z,14.80
2019-04-04T11:23:30.395Z,15.00
2019-04-04T11:24:30.332Z,15.30
2019-04-04T11:25:30.223Z,15.30
2019-04-04T11:26:30.143Z,15.10
2019-04-04T11:27:30.066Z,14.80
2019-04-04T11:28:29.983Z,16.10
2019-04-04T11:29:29.914Z,15.20
2019-04-04T11:30:29.818Z,15.30
2019-04-04T11:31:29.726Z,14.40
2019-04-04T11:32:29.642Z,13.50
2019-04-04T11:33:29.562Z,14.10
2019-04-04T11:34:29.488Z,14.10
2019-04-04T11:35:29.392Z,14.70
2019-04-04T11:36:29.315Z,14.70
2019-04-04T11:37:29.226Z,14.90
2019-04-04T11:38:29.141Z,14.90
2019-04-04T11:39:29.075Z,13.20
2019-04-04T11:40:29.013Z,14.30
2019-04-04T11:41:28.888Z,15.30
2019-04-04T11:42:28.818Z,13.80
2019-04-04T11:43:28.729Z,13.50
2019-04-04T11:44:30.788Z,14.80
2019-04-04T11:45:28.559Z,14.20
2019-04-04T11:46:28.481Z,14.00
2019-04-04T11:47:28.394Z,14.30
2019-04-04T11:48:28.307Z,14.20
2019-04-04T11:49:28.313Z,14.00
2019-04-04T11:50:28.141Z,13.70
2019-04-04T11:51:28.056Z,14.60
2019-04-04T11:52:27.980Z,13.50
2019-04-04T11:53:27.899Z,14.20
2019-04-04T11:54:27.826Z,13.90
2019-04-04T11:55:27.733Z,14.00
2019-04-04T11:56:27.644Z,13.40
2019-04-04T11:57:27.561Z,14.10
2019-04-04T11:58:27.485Z,13.00
2019-04-04T11:59:27.411Z,13.70
2019-04-04T12:00:27.313Z,13.60
2019-04-04T12:01:27.282Z,13.80
2019-04-04T12:02:27.142Z,13.40
2019-04-04T12:03:27.077Z,13.00
2019-04-04T12:04:27.006Z,13.20
2019-04-04T12:05:26.899Z,14.00
2019-04-04T12:06:26.833Z,13.50
2019-04-04T12:07:26.739Z,13.50
2019-04-04T12:08:26.655Z,13.40
2019-04-04T12:09:26.582Z,13.10
2019-04-04T12:10:26.497Z,13.80
2019-04-04T12:11:26.405Z,13.90
2019-04-04T12:12:26.332Z,13.30
2019-04-04T12:13:26.248Z,13.40
2019-04-04T12:14:26.177Z,13.80
2019-04-04T12:15:26.077Z,13.00
2019-04-04T12:16:25.996Z,13.10
2019-04-04T12:17:25.906Z,13.90
2019-04-04T12:18:25.835Z,13.50
2019-04-04T12:19:25.753Z,12.60
2019-04-04T12:20:25.664Z,14.10
2019-04-04T12:21:25.581Z,13.90
2019-04-04T12:22:25.500Z,14.00
2019-04-04T12:23:25.419Z,13.90
2019-04-04T12:24:25.346Z,13.90
2019-04-04T12:25:25.252Z,13.00
2019-04-04T12:26:25.163Z,12.40
2019-04-04T12:27:25.086Z,13.00
2019-04-04T12:28:25.017Z,13.10
2019-04-04T12:29:24.941Z,13.30
2019-04-04T12:30:24.834Z,13.60
2019-04-04T12:31:24.759Z,13.70
2019-04-04T12:32:24.669Z,13.80
2019-04-04T12:33:24.583Z,13.20
2019-04-04T12:34:24.525Z,12.50
2019-04-04T12:35:24.421Z,13.50
2019-04-04T12:36:25.133Z,14.10
2019-04-04T12:37:24.266Z,12.70
2019-04-04T12:38:24.177Z,12.00
2019-04-04T12:39:24.103Z,12.00
2019-04-04T12:40:24.014Z,12.20
2019-04-04T12:41:23.925Z,13.20
2019-04-04T12:42:23.844Z,13.80
2019-04-04T12:43:23.765Z,13.30
2019-04-04T12:44:23.710Z,12.50
2019-04-04T12:45:23.600Z,13.90
2019-04-04T12:46:23.514Z,13.50
2019-04-04T12:47:23.434Z,13.90
2019-04-04T12:48:23.347Z,13.80
2019-04-04T12:49:23.277Z,13.90
2019-04-04T12:50:23.202Z,13.60
2019-04-04T12:51:23.106Z,14.30